KPNS/PNS METAR and TAF weather

Enter ICAO airport designator
Station Type Date Time Source
KPNS METAR 2022/06/30 01:53 UTC NOAA

KPNS 300153Z 03003KT 10SM CLR 26/24 A3014 RMK AO2 SLP206 T02560239


Station Type Date Time Source
KPNS Decoded METAR 2022/06/30 01:53 UTC NOAA

PENSACOLA REGIONAL AIRPORT, FL, United States (KPNS) 30-29N 087-11W 38M
Jun 29, 2022 - 09:53 PM EDT / 2022.06.30 0153 UTC
Wind: from the NNE (030 degrees) at 3 MPH (3 KT):0
Visibility: 10 mile(s):0
Sky conditions: clear
Temperature: 78.1 F (25.6 C)
Dew Point: 75.0 F (23.9 C)
Relative Humidity: 90%
Pressure (altimeter): 30.14 in. Hg (1020 hPa)
ob: KPNS 300153Z 03003KT 10SM CLR 26/24 A3014 RMK AO2 SLP206 T02560239
cycle: 2

Station Type Date Time Source
KPNS TAF 2022/06/29 18:22 UTC NOAA

TAF KPNS 291720Z 2918/3018 18005KT 6SM -RA BR SCT050 BKN090 OVC120
TEMPO 2918/2921 4SM TSRA BKN026CB
FM300000 14007KT P6SM VCTS SCT025CB BKN100
FM301200 12006KT P6SM SCT028 BKN100 PROB30 3012/3015 4SM TSRA BKN020CB

Example: see airport list